Alix, Canada
Current Conditions -  °F | °C
As of 8:00 PM on Monday 22 Dec 2014 (Local Time) from CYQF Reporting Station
Broken Clouds Broken Clouds  
Wind Chill: 18°   Ceiling: 9000
Heat Index: 27°   Visibility: 15mi
Dew Point: 19°   Wind: 8mph
Humidity: 74%   Direction: 240°WSW
Pressure: 30.06"   Gusts: NA
Location:  52.4°N, 113.18°W
Report Text: CYQF 230300Z 24007KT 15SM BKN090 M03/M07 A3006 RMK AC6 SLP226
Loading
Personal Weather Stations






























Interactive Weather Map New forecast layout! Learn more

10-Day Weather Forecast

Advertisements
Track Severe Weather on mobile